Time;durP1;ratioP1;P1;durP2;ratioP2;P2;SDS_P1;SDS_P2;PMS_P1;PMS_P2;Temp;Humidity;BMP_temperature;BMP_pressure;BME280_temperature;BME280_humidity;BME280_pressure;Samples;Min_cycle;Max_cycle;Signal;HPM_P1;HPM_P2
2024/01/02 00:01:24;;;;;;;7.43;1.17;;;6.90;99.90;;;;;;5051569;28;20056;-56
2024/01/02 00:03:49;;;;;;;5.27;1.20;;;7.00;99.90;;;;;;5051620;28;20099;-54
2024/01/02 00:06:15;;;;;;;3.17;0.73;;;7.00;99.90;;;;;;5054768;28;20397;-54
2024/01/02 00:08:42;;;;;;;4.17;1.10;;;7.00;99.90;;;;;;5055563;28;20083;-53
2024/01/02 00:11:08;;;;;;;6.23;0.83;;;7.00;99.90;;;;;;5055581;28;20440;-54
2024/01/02 00:13:34;;;;;;;3.60;0.80;;;7.00;99.90;;;;;;5055560;28;20033;-55
2024/01/02 00:15:59;;;;;;;4.20;0.83;;;7.00;99.90;;;;;;5055590;28;20082;-54
2024/01/02 00:18:25;;;;;;;2.30;0.80;;;6.90;99.90;;;;;;5055429;28;20029;-53
2024/01/02 00:20:51;;;;;;;2.73;0.87;;;7.00;99.90;;;;;;5055291;28;20025;-54
2024/01/02 00:23:16;;;;;;;3.47;1.10;;;7.00;99.90;;;;;;5055411;28;20037;-55
2024/01/02 00:25:42;;;;;;;2.57;0.57;;;7.00;99.90;;;;;;5055407;28;20041;-54
2024/01/02 00:28:09;;;;;;;3.47;0.60;;;7.00;99.90;;;;;;5055376;28;20154;-55
2024/01/02 00:30:35;;;;;;;3.30;0.83;;;7.00;99.90;;;;;;5037343;28;20033;-54
2024/01/02 00:33:03;;;;;;;4.63;0.73;;;7.10;99.90;;;;;;5037326;28;20025;-56
2024/01/02 00:35:29;;;;;;;6.30;0.90;;;7.10;99.90;;;;;;5055285;28;20121;-53
2024/01/02 00:37:57;;;;;;;2.47;1.00;;;7.00;99.90;;;;;;5055202;28;20060;-51
2024/01/02 00:40:22;;;;;;;3.43;0.87;;;7.10;99.90;;;;;;5036965;28;20114;-53
2024/01/02 00:42:48;;;;;;;3.50;0.60;;;7.10;99.90;;;;;;5055062;28;20028;-55
2024/01/02 00:45:14;;;;;;;1.87;0.47;;;7.10;99.90;;;;;;5055034;28;20371;-55
2024/01/02 00:47:40;;;;;;;2.63;0.77;;;7.10;99.90;;;;;;5054877;28;20025;-54
2024/01/02 00:50:06;;;;;;;1.97;0.50;;;7.10;99.90;;;;;;5036975;28;20031;-52
2024/01/02 00:52:33;;;;;;;5.07;0.70;;;7.10;99.90;;;;;;5036820;28;20029;-54
2024/01/02 00:54:58;;;;;;;3.37;0.83;;;7.10;99.90;;;;;;5020535;28;20076;-54
2024/01/02 00:57:26;;;;;;;2.93;0.63;;;7.10;99.90;;;;;;5037169;28;20056;-55
2024/01/02 00:59:51;;;;;;;6.87;0.63;;;7.10;99.90;;;;;;5036686;28;20029;-52
2024/01/02 01:02:17;;;;;;;3.03;0.60;;;7.10;99.90;;;;;;5054630;28;20033;-55
2024/01/02 01:04:43;;;;;;;3.50;0.80;;;7.00;99.90;;;;;;5054773;28;20059;-55
2024/01/02 01:07:10;;;;;;;3.10;0.60;;;7.00;99.90;;;;;;5036790;28;20094;-54
2024/01/02 01:09:35;;;;;;;2.73;0.60;;;6.90;99.90;;;;;;5036464;28;20509;-55
2024/01/02 01:12:02;;;;;;;2.40;0.40;;;7.00;99.90;;;;;;5054480;28;20028;-53
2024/01/02 01:14:28;;;;;;;1.47;0.40;;;7.00;99.90;;;;;;5036506;28;20029;-54
2024/01/02 01:16:53;;;;;;;4.07;0.53;;;7.00;99.90;;;;;;5036646;28;20394;-54
2024/01/02 01:19:19;;;;;;;3.93;0.73;;;6.90;99.90;;;;;;5054439;28;20029;-51
2024/01/02 01:21:45;;;;;;;2.87;0.73;;;6.90;99.90;;;;;;5036924;28;20036;-56
2024/01/02 01:24:10;;;;;;;2.17;0.60;;;6.90;99.90;;;;;;5036994;28;20044;-56
2024/01/02 01:26:36;;;;;;;5.10;0.70;;;6.90;99.90;;;;;;5037127;28;20029;-57
2024/01/02 01:29:02;;;;;;;1.00;0.33;;;7.00;99.90;;;;;;5054582;28;20479;-55
2024/01/02 01:31:28;;;;;;;3.57;0.60;;;7.00;99.90;;;;;;5036752;28;20068;-54
2024/01/02 01:33:54;;;;;;;1.80;0.30;;;7.00;99.90;;;;;;5036731;28;20029;-55
2024/01/02 01:36:20;;;;;;;1.73;0.50;;;6.90;99.90;;;;;;5036976;28;20116;-55
2024/01/02 01:38:45;;;;;;;1.50;0.80;;;6.90;99.90;;;;;;5036732;28;20063;-55
2024/01/02 01:41:11;;;;;;;3.50;0.80;;;6.90;99.90;;;;;;5036691;28;20033;-53
2024/01/02 01:43:37;;;;;;;2.47;0.40;;;6.90;99.90;;;;;;5054143;28;20029;-53
2024/01/02 01:46:05;;;;;;;3.90;0.67;;;6.90;99.90;;;;;;5035880;28;20032;-54
2024/01/02 01:48:30;;;;;;;1.07;0.40;;;6.90;99.90;;;;;;5053590;28;20059;-55
2024/01/02 01:50:56;;;;;;;2.43;0.50;;;6.90;99.90;;;;;;5035366;28;20033;-53
2024/01/02 01:53:23;;;;;;;1.83;0.87;;;7.00;99.90;;;;;;5035677;28;20040;-54
2024/01/02 01:55:49;;;;;;;2.10;0.27;;;7.00;99.90;;;;;;5053375;28;20041;-52
2024/01/02 01:58:16;;;;;;;2.80;0.57;;;7.00;99.90;;;;;;5035500;28;20072;-55
2024/01/02 02:00:43;;;;;;;2.63;0.40;;;7.00;99.90;;;;;;5035141;28;20044;-55
2024/01/02 02:03:09;;;;;;;1.13;0.50;;;6.90;99.90;;;;;;5035286;28;20086;-55
2024/01/02 02:05:35;;;;;;;3.93;0.30;;;6.90;99.90;;;;;;5035252;28;20033;-55
2024/01/02 02:08:03;;;;;;;6.70;0.53;;;7.00;99.90;;;;;;5053331;28;20251;-56
2024/01/02 02:10:29;;;;;;;3.83;0.77;;;7.00;99.90;;;;;;5034777;28;20544;-51
2024/01/02 02:12:57;;;;;;;1.50;0.40;;;6.90;99.90;;;;;;5035023;28;20032;-54
2024/01/02 02:15:23;;;;;;;0.93;0.30;;;7.00;99.90;;;;;;5052870;28;20067;-51
2024/01/02 02:17:49;;;;;;;3.93;0.47;;;6.90;99.90;;;;;;5034957;28;20086;-51
2024/01/02 02:20:15;;;;;;;2.33;0.43;;;6.90;99.90;;;;;;5052476;28;20494;-55
2024/01/02 02:22:51;;;;;;;0.30;0.17;;;6.90;99.90;;;;;;5035166;28;20032;-52
2024/01/02 02:25:18;;;;;;;0.10;0.10;;;6.90;99.90;;;;;;5035111;28;20485;-54
2024/01/02 02:27:45;;;;;;;0.57;0.20;;;7.00;99.90;;;;;;5052222;28;20120;-55
2024/01/02 02:30:11;;;;;;;4.93;0.67;;;7.00;99.90;;;;;;5034902;28;20044;-53
2024/01/02 02:32:37;;;;;;;3.17;0.50;;;7.00;99.90;;;;;;5034903;28;20037;-53
2024/01/02 02:35:04;;;;;;;1.57;0.30;;;6.90;99.90;;;;;;5035181;28;20028;-55
2024/01/02 02:37:30;;;;;;;1.83;0.30;;;7.00;99.90;;;;;;5052968;28;20432;-55
2024/01/02 02:39:55;;;;;;;1.97;0.37;;;7.00;99.90;;;;;;5034548;28;20082;-56
2024/01/02 02:42:21;;;;;;;0.83;0.13;;;7.00;99.90;;;;;;4998447;28;1042747;-54
2024/01/02 02:44:47;;;;;;;2.03;0.47;;;7.00;99.90;;;;;;5035839;28;20052;-53
2024/01/02 02:47:12;;;;;;;1.43;0.33;;;7.00;99.90;;;;;;5036021;28;20029;-53
2024/01/02 02:49:39;;;;;;;0.93;0.53;;;7.00;99.90;;;;;;5035680;28;20029;-52
2024/01/02 02:52:05;;;;;;;1.53;0.70;;;7.00;99.90;;;;;;5035345;28;20067;-55
2024/01/02 02:54:30;;;;;;;0.70;0.40;;;6.90;99.90;;;;;;5035508;28;20033;-55
2024/01/02 02:56:56;;;;;;;3.27;0.27;;;7.00;99.90;;;;;;5053275;28;20029;-50
2024/01/02 02:59:22;;;;;;;0.30;0.30;;;7.00;99.90;;;;;;5035148;28;20025;-52
2024/01/02 03:01:47;;;;;;;0.30;0.20;;;7.00;99.90;;;;;;5053291;28;20039;-54
2024/01/02 03:04:13;;;;;;;2.80;0.57;;;7.00;99.90;;;;;;5053613;28;20450;-51
2024/01/02 03:06:39;;;;;;;0.27;0.20;;;7.00;99.90;;;;;;5053091;28;20037;-53
2024/01/02 03:09:04;;;;;;;0.67;0.40;;;7.00;99.90;;;;;;5052650;28;20119;-53
2024/01/02 03:11:30;;;;;;;1.97;0.30;;;7.00;99.90;;;;;;5052946;28;20029;-51
2024/01/02 03:13:56;;;;;;;1.03;0.40;;;7.00;99.90;;;;;;5053091;28;20036;-52
2024/01/02 03:16:23;;;;;;;1.50;0.30;;;6.90;99.90;;;;;;5053005;28;20021;-54
2024/01/02 03:18:49;;;;;;;0.47;0.20;;;6.90;99.90;;;;;;5051935;28;20477;-50
2024/01/02 03:21:15;;;;;;;0.10;0.10;;;7.00;99.90;;;;;;5052171;28;20033;-53
2024/01/02 03:23:40;;;;;;;0.63;0.23;;;6.90;99.90;;;;;;5052004;28;20029;-52
2024/01/02 03:26:08;;;;;;;1.93;0.50;;;6.90;99.90;;;;;;5034268;28;20029;-54
2024/01/02 03:28:34;;;;;;;0.13;0.07;;;6.90;99.90;;;;;;5052006;28;20268;-53
2024/01/02 03:31:01;;;;;;;0.47;0.17;;;6.90;99.90;;;;;;5052076;28;20099;-54
2024/01/02 03:33:27;;;;;;;0.23;0.20;;;7.00;99.90;;;;;;5052134;28;20402;-52
2024/01/02 03:35:53;;;;;;;0.60;0.27;;;7.00;99.90;;;;;;5052151;28;20049;-51
2024/01/02 03:38:18;;;;;;;0.20;0.10;;;7.00;99.90;;;;;;5052011;28;20531;-55
2024/01/02 03:40:44;;;;;;;0.70;0.23;;;7.00;99.90;;;;;;5051955;28;20033;-54
2024/01/02 03:43:09;;;;;;;1.00;0.20;;;6.90;99.90;;;;;;5051920;28;20047;-55
2024/01/02 03:45:35;;;;;;;0.27;0.10;;;6.90;99.90;;;;;;5052227;28;20029;-54
2024/01/02 03:48:01;;;;;;;0.43;0.17;;;6.90;99.90;;;;;;5051979;28;20052;-52
2024/01/02 03:50:26;;;;;;;0.90;0.30;;;6.90;99.90;;;;;;5051704;28;20513;-52
2024/01/02 03:52:52;;;;;;;0.77;0.20;;;6.90;99.90;;;;;;5052017;28;20401;-54
2024/01/02 03:55:18;;;;;;;0.37;0.10;;;6.80;99.90;;;;;;5052233;28;20025;-54
2024/01/02 03:57:43;;;;;;;0.83;0.20;;;6.80;99.90;;;;;;5051961;28;20037;-55
2024/01/02 04:00:10;;;;;;;0.23;0.20;;;6.80;99.90;;;;;;5034422;28;20029;-56
2024/01/02 04:02:35;;;;;;;0.10;0.10;;;6.80;99.90;;;;;;5052031;28;20492;-56
2024/01/02 04:05:03;;;;;;;0.27;0.10;;;6.80;99.90;;;;;;5052184;28;20029;-60
2024/01/02 04:07:29;;;;;;;0.30;0.10;;;6.80;99.90;;;;;;5052143;28;20043;-55
2024/01/02 04:09:56;;;;;;;0.40;0.17;;;6.80;99.90;;;;;;5051960;28;20028;-52
2024/01/02 04:12:21;;;;;;;0.80;0.20;;;6.80;99.90;;;;;;5051867;28;20033;-56
2024/01/02 04:14:47;;;;;;;0.30;0.10;;;6.80;99.90;;;;;;5051774;28;20028;-53
2024/01/02 04:17:13;;;;;;;0.43;0.20;;;6.80;99.90;;;;;;5051635;28;20029;-51
2024/01/02 04:19:38;;;;;;;0.10;0.03;;;6.80;99.90;;;;;;5051355;28;20036;-52
2024/01/02 04:22:04;;;;;;;0.10;0.10;;;6.80;99.90;;;;;;5051434;28;20021;-55
2024/01/02 04:24:30;;;;;;;0.13;0.00;;;6.80;99.90;;;;;;5051507;28;20029;-54
2024/01/02 04:26:56;;;;;;;1.27;0.03;;;6.80;99.90;;;;;;5051394;28;20035;-51
2024/01/02 04:29:21;;;;;;;0.07;0.00;;;6.80;99.90;;;;;;5051165;28;20078;-54
2024/01/02 04:31:47;;;;;;;0.10;0.00;;;6.80;99.90;;;;;;5051258;28;20029;-53
2024/01/02 04:34:13;;;;;;;0.10;0.10;;;6.80;99.90;;;;;;5051407;28;20024;-52
2024/01/02 04:36:40;;;;;;;0.87;0.10;;;6.80;99.90;;;;;;5051448;28;20209;-56
2024/01/02 04:39:06;;;;;;;0.17;0.03;;;6.90;99.90;;;;;;5051353;28;20032;-55
2024/01/02 04:41:32;;;;;;;0.20;0.10;;;6.90;99.90;;;;;;5033492;28;20025;-55
2024/01/02 04:43:57;;;;;;;1.80;0.10;;;6.90;99.90;;;;;;5051410;28;20098;-54
2024/01/02 04:46:23;;;;;;;1.90;0.20;;;6.90;99.90;;;;;;5051524;28;20033;-55
2024/01/02 04:48:49;;;;;;;0.43;0.30;;;6.90;99.90;;;;;;5051121;28;20040;-55
2024/01/02 04:51:14;;;;;;;0.97;0.10;;;6.90;99.90;;;;;;5052483;28;20021;-52
2024/01/02 04:53:41;;;;;;;0.20;0.10;;;6.90;99.90;;;;;;5055109;28;20033;-58
2024/01/02 04:56:06;;;;;;;1.50;0.17;;;6.90;99.90;;;;;;5055172;28;20029;-53
2024/01/02 04:58:32;;;;;;;0.10;0.07;;;7.00;99.90;;;;;;5055124;28;20040;-52
2024/01/02 05:00:58;;;;;;;0.00;0.00;;;7.00;99.90;;;;;;5054792;28;20040;-54
2024/01/02 05:03:23;;;;;;;0.73;0.20;;;7.00;99.90;;;;;;5054850;28;20390;-52
2024/01/02 05:05:49;;;;;;;0.40;0.10;;;7.10;99.90;;;;;;5054894;28;20481;-55
2024/01/02 05:08:14;;;;;;;0.40;0.30;;;7.10;99.90;;;;;;5054965;28;20028;-56
2024/01/02 05:10:40;;;;;;;0.20;0.20;;;7.10;99.90;;;;;;5054549;28;20555;-56
2024/01/02 05:13:06;;;;;;;0.77;0.30;;;7.10;99.90;;;;;;5054690;28;20025;-57
2024/01/02 05:15:31;;;;;;;0.30;0.20;;;7.10;99.90;;;;;;5054966;28;20025;-57
2024/01/02 05:17:57;;;;;;;0.20;0.20;;;7.10;99.90;;;;;;5054540;28;20407;-56
2024/01/02 05:20:22;;;;;;;0.33;0.10;;;7.10;99.90;;;;;;5054327;28;20025;-55
2024/01/02 05:22:48;;;;;;;0.17;0.17;;;7.20;99.90;;;;;;5054340;28;20086;-54
2024/01/02 05:25:14;;;;;;;0.87;0.10;;;7.20;99.90;;;;;;5054682;28;20051;-54
2024/01/02 05:27:40;;;;;;;0.30;0.13;;;7.30;99.90;;;;;;5054456;28;20120;-53
2024/01/02 05:30:07;;;;;;;0.00;0.00;;;7.30;99.90;;;;;;5054209;28;20040;-54
2024/01/02 05:32:32;;;;;;;0.17;0.10;;;7.30;99.90;;;;;;5054250;28;20037;-55
2024/01/02 05:34:58;;;;;;;0.20;0.17;;;7.30;99.90;;;;;;5054505;28;20102;-54
2024/01/02 05:37:23;;;;;;;0.50;0.40;;;7.40;99.90;;;;;;5054366;28;20032;-54
2024/01/02 05:39:49;;;;;;;1.57;0.50;;;7.40;99.90;;;;;;5053835;28;20025;-53
2024/01/02 05:42:15;;;;;;;1.07;0.60;;;7.40;99.90;;;;;;5054069;28;20440;-53
2024/01/02 05:44:40;;;;;;;1.30;0.60;;;7.50;99.90;;;;;;5054152;28;20371;-55
2024/01/02 05:47:06;;;;;;;0.20;0.20;;;7.50;99.90;;;;;;5054131;28;20037;-55
2024/01/02 05:49:31;;;;;;;0.80;0.40;;;7.50;99.90;;;;;;5053768;28;20051;-55
2024/01/02 05:51:57;;;;;;;0.70;0.40;;;7.60;99.90;;;;;;5053859;28;20486;-56
2024/01/02 05:54:23;;;;;;;0.20;0.20;;;7.60;99.90;;;;;;5054036;28;20127;-56
2024/01/02 05:56:48;;;;;;;0.50;0.33;;;7.60;99.90;;;;;;5054122;28;20035;-55
2024/01/02 05:59:14;;;;;;;0.50;0.40;;;7.70;99.90;;;;;;5053815;28;20036;-54
2024/01/02 06:01:39;;;;;;;0.60;0.40;;;7.70;99.90;;;;;;5053766;28;20024;-51
2024/01/02 06:04:05;;;;;;;1.53;0.60;;;7.80;99.90;;;;;;5052680;28;20037;-56
2024/01/02 06:06:30;;;;;;;0.90;0.30;;;7.90;99.90;;;;;;5053748;28;20036;-52
2024/01/02 06:08:56;;;;;;;0.53;0.20;;;7.90;99.90;;;;;;5053464;28;20068;-52
2024/01/02 06:11:22;;;;;;;1.50;0.40;;;8.00;99.90;;;;;;5053709;28;20440;-53
2024/01/02 06:13:47;;;;;;;1.70;0.50;;;8.00;99.90;;;;;;5053717;28;20432;-54
2024/01/02 06:16:13;;;;;;;2.43;1.10;;;8.10;99.90;;;;;;5053696;28;20029;-55
2024/01/02 06:18:38;;;;;;;0.80;0.60;;;8.10;99.90;;;;;;5053289;28;20056;-56
2024/01/02 06:21:04;;;;;;;1.47;0.70;;;8.10;99.90;;;;;;5053553;28;20037;-55
2024/01/02 06:23:33;;;;;;;0.83;0.60;;;8.20;99.90;;;;;;5035725;28;20493;-56
2024/01/02 06:26:00;;;;;;;2.35;1.00;;;8.20;99.90;;;;;;5053372;28;20037;-55
2024/01/02 06:28:25;;;;;;;4.03;1.67;;;8.30;99.90;;;;;;5053568;28;20033;-55
2024/01/02 06:30:51;;;;;;;1.80;0.97;;;8.30;99.90;;;;;;5053300;28;20397;-55
2024/01/02 06:33:17;;;;;;;1.00;0.80;;;8.40;99.90;;;;;;5053167;28;20025;-55
2024/01/02 06:35:42;;;;;;;1.07;0.50;;;8.50;99.90;;;;;;5035654;28;20108;-55
2024/01/02 06:38:11;;;;;;;0.83;0.60;;;8.60;99.90;;;;;;5053419;28;20017;-54
2024/01/02 06:40:37;;;;;;;1.30;0.80;;;8.70;99.90;;;;;;5053114;28;20033;-54
2024/01/02 06:43:03;;;;;;;2.80;1.00;;;8.80;99.90;;;;;;5053035;28;20059;-55
2024/01/02 06:45:28;;;;;;;1.50;0.70;;;8.80;99.90;;;;;;5035328;28;20033;-55
2024/01/02 06:47:55;;;;;;;1.73;0.80;;;8.90;99.90;;;;;;5052960;28;20051;-54
2024/01/02 06:50:21;;;;;;;2.80;1.40;;;8.90;99.90;;;;;;5053117;28;20386;-56
2024/01/02 06:52:47;;;;;;;3.77;1.50;;;9.00;99.90;;;;;;5052880;28;20033;-56
2024/01/02 06:55:13;;;;;;;3.30;1.40;;;9.30;99.90;;;;;;5052852;28;20021;-54
2024/01/02 06:57:39;;;;;;;3.83;1.67;;;9.40;99.90;;;;;;5052816;28;20058;-54
2024/01/02 07:00:06;;;;;;;3.70;1.93;;;9.50;99.90;;;;;;5034803;28;20470;-55
2024/01/02 07:02:32;;;;;;;5.87;2.63;;;9.60;99.90;;;;;;5052593;28;20036;-55
2024/01/02 07:04:59;;;;;;;3.97;1.90;;;9.70;99.90;;;;;;5035076;28;20037;-53
2024/01/02 07:07:25;;;;;;;3.77;1.60;;;9.80;99.90;;;;;;5052661;28;20413;-56
2024/01/02 07:09:50;;;;;;;4.23;1.20;;;9.90;99.90;;;;;;5052435;28;20029;-55
2024/01/02 07:12:17;;;;;;;3.53;2.00;;;9.90;99.90;;;;;;5052321;28;20123;-55
2024/01/02 07:14:43;;;;;;;3.53;1.60;;;10.00;99.90;;;;;;5052249;28;20032;-54
2024/01/02 07:17:09;;;;;;;2.93;1.10;;;10.00;99.90;;;;;;5052341;28;20078;-54
2024/01/02 07:19:35;;;;;;;3.33;1.20;;;10.10;99.90;;;;;;5052195;28;20025;-55
2024/01/02 07:22:00;;;;;;;3.47;1.13;;;10.20;99.90;;;;;;5052176;28;20040;-56
2024/01/02 07:24:26;;;;;;;2.43;1.10;;;10.20;99.90;;;;;;5052415;28;20036;-55
2024/01/02 07:26:52;;;;;;;1.90;0.93;;;10.30;99.90;;;;;;5052303;28;20500;-56
2024/01/02 07:29:17;;;;;;;0.63;0.57;;;10.30;99.90;;;;;;5052013;28;20082;-55
2024/01/02 07:31:43;;;;;;;1.37;0.80;;;10.30;99.90;;;;;;5051955;28;20112;-53
2024/01/02 07:34:12;;;;;;;2.10;0.70;;;10.30;99.90;;;;;;5052224;28;20044;-55
2024/01/02 07:36:38;;;;;;;0.75;0.50;;;10.40;99.90;;;;;;5052135;28;20109;-54
2024/01/02 07:39:04;;;;;;;1.40;0.70;;;10.40;99.90;;;;;;5051675;28;20545;-54
2024/01/02 07:41:30;;;;;;;0.97;0.70;;;10.40;99.90;;;;;;5051920;28;20118;-50
2024/01/02 07:43:56;;;;;;;0.80;0.60;;;10.40;99.90;;;;;;5051869;28;20497;-50
2024/01/02 07:46:21;;;;;;;2.20;0.70;;;10.50;99.90;;;;;;5051906;28;20033;-55
2024/01/02 07:48:47;;;;;;;2.17;0.67;;;10.40;99.90;;;;;;5051632;28;20037;-54
2024/01/02 07:51:13;;;;;;;1.73;0.90;;;10.50;99.90;;;;;;5051647;28;20555;-54
2024/01/02 07:53:38;;;;;;;1.87;0.70;;;10.50;99.90;;;;;;5034008;28;20039;-56
2024/01/02 07:56:04;;;;;;;1.50;0.80;;;10.50;99.90;;;;;;5051848;28;20021;-51
2024/01/02 07:58:30;;;;;;;1.17;0.70;;;10.50;99.90;;;;;;5051777;28;20039;-54
2024/01/02 08:00:56;;;;;;;0.93;0.60;;;10.60;99.90;;;;;;5051484;28;20029;-55
2024/01/02 08:03:21;;;;;;;2.10;0.80;;;10.60;99.90;;;;;;5051573;28;20520;-56
2024/01/02 08:05:47;;;;;;;0.97;0.63;;;10.60;99.90;;;;;;5051715;28;20163;-55
2024/01/02 08:08:13;;;;;;;1.23;0.73;;;10.60;99.90;;;;;;5051692;28;20478;-51
2024/01/02 08:10:38;;;;;;;2.33;1.23;;;10.70;99.90;;;;;;5051438;28;20108;-55
2024/01/02 08:13:04;;;;;;;1.70;1.00;;;10.70;99.90;;;;;;5051557;28;20485;-55
2024/01/02 08:15:32;;;;;;;0.93;0.60;;;10.70;99.90;;;;;;5051532;28;20043;-55
2024/01/02 08:17:58;;;;;;;1.17;0.77;;;10.70;99.90;;;;;;5051570;28;20037;-53
2024/01/02 08:20:24;;;;;;;0.90;0.53;;;10.70;99.90;;;;;;5051292;28;20021;-51
2024/01/02 08:22:49;;;;;;;1.10;0.60;;;10.80;99.90;;;;;;5051415;28;20554;-53
2024/01/02 08:25:15;;;;;;;0.97;0.63;;;10.70;99.90;;;;;;5051547;28;20533;-56
2024/01/02 08:27:41;;;;;;;0.67;0.47;;;10.70;99.90;;;;;;5055192;28;20025;-55
2024/01/02 08:30:07;;;;;;;5.30;2.33;;;10.70;99.90;;;;;;5055243;28;20131;-54
2024/01/02 08:32:33;;;;;;;0.80;0.60;;;10.80;99.90;;;;;;5037401;28;20485;-54
2024/01/02 08:34:59;;;;;;;1.70;0.80;;;10.80;99.90;;;;;;5055382;28;20025;-52
2024/01/02 08:37:25;;;;;;;1.07;0.50;;;10.90;99.90;;;;;;5055291;28;20029;-55
2024/01/02 08:39:51;;;;;;;0.50;0.40;;;10.90;99.90;;;;;;5055062;28;20029;-54
2024/01/02 08:42:16;;;;;;;1.50;0.60;;;10.90;99.90;;;;;;5054979;28;20040;-50
2024/01/02 08:44:42;;;;;;;2.77;0.70;;;10.90;99.90;;;;;;5070183;22;20048;-53
2024/01/02 08:47:08;;;;;;;0.40;0.40;;;10.90;99.90;;;;;;5053824;28;20079;-52
2024/01/02 08:49:33;;;;;;;2.13;0.60;;;10.90;99.90;;;;;;5054784;28;20167;-53
2024/01/02 08:51:59;;;;;;;1.20;0.80;;;10.90;99.90;;;;;;5054828;28;20029;-52
2024/01/02 08:54:24;;;;;;;1.90;0.60;;;11.00;99.90;;;;;;5054782;28;20557;-50
2024/01/02 08:56:50;;;;;;;1.00;0.60;;;11.00;99.90;;;;;;5054902;28;20035;-51
2024/01/02 08:59:16;;;;;;;0.33;0.30;;;11.00;99.90;;;;;;5054605;28;20029;-50
2024/01/02 09:01:41;;;;;;;1.57;0.70;;;11.00;99.90;;;;;;5054779;28;20436;-54
2024/01/02 09:04:07;;;;;;;0.37;0.30;;;11.00;99.90;;;;;;5054640;28;20424;-55
2024/01/02 09:06:32;;;;;;;0.30;0.30;;;11.00;99.90;;;;;;5055041;28;20025;-51
2024/01/02 09:08:58;;;;;;;0.40;0.40;;;11.00;99.90;;;;;;5054511;28;20029;-55
2024/01/02 09:11:27;;;;;;;0.50;0.33;;;11.10;99.90;;;;;;5054506;28;20047;-51
2024/01/02 09:13:52;;;;;;;0.30;0.30;;;11.10;99.90;;;;;;5054660;28;20048;-53
2024/01/02 09:16:18;;;;;;;8.47;3.83;;;11.10;99.90;;;;;;5054561;28;20474;-51
2024/01/02 09:18:43;;;;;;;3.07;1.90;;;11.20;99.90;;;;;;5054278;28;20037;-52
2024/01/02 09:21:09;;;;;;;4.40;1.93;;;11.20;99.90;;;;;;5054398;28;20051;-50
2024/01/02 09:23:35;;;;;;;8.83;3.67;;;11.20;99.90;;;;;;5054354;28;20135;-54
2024/01/02 09:26:04;;;;;;;6.20;2.97;;;11.20;99.90;;;;;;5054367;28;20110;-53
2024/01/02 09:28:30;;;;;;;1.63;1.00;;;11.20;99.90;;;;;;5054309;28;20033;-53
2024/01/02 09:30:56;;;;;;;1.37;0.80;;;11.30;99.90;;;;;;5054060;28;20044;-53
2024/01/02 09:33:25;;;;;;;3.40;1.47;;;11.30;99.90;;;;;;5054200;28;20397;-52
2024/01/02 09:35:51;;;;;;;4.60;1.50;;;11.30;99.90;;;;;;5054165;28;20484;-53
2024/01/02 09:38:16;;;;;;;5.70;2.00;;;11.30;99.90;;;;;;5053844;28;20036;-52
2024/01/02 09:41:05;;;;;;;2.83;1.60;;;11.20;99.90;;;;;;5035994;28;20183;-54
2024/01/02 09:43:51;;;;;;;2.90;1.60;;;11.40;99.90;;;;;;5053876;28;20392;-52
2024/01/02 09:46:40;;;;;;;3.30;1.77;;;11.30;99.90;;;;;;5054012;28;20108;-52
2024/01/02 09:49:27;;;;;;;2.92;1.48;;;11.30;99.90;;;;;;5054123;28;20033;-53
2024/01/02 09:52:13;;;;;;;3.53;1.83;;;11.30;99.90;;;;;;5053691;28;20036;-52
2024/01/02 09:55:14;;;;;;;3.03;1.57;;;11.20;99.90;;;;;;5053805;28;20055;-56
2024/01/02 09:57:54;;;;;;;4.03;1.67;;;11.20;99.90;;;;;;5019814;28;20578;-54
2024/01/02 10:00:27;;;;;;;4.60;1.47;;;11.20;99.90;;;;;;5053547;28;20644;-51
2024/01/02 10:03:20;;;;;;;2.90;1.73;;;11.10;99.90;;;;;;5053587;28;20029;-52
2024/01/02 10:05:49;;;;;;;2.90;1.47;;;11.10;99.90;;;;;;5035957;28;20385;-52
2024/01/02 10:08:37;;;;;;;2.40;1.40;;;11.10;99.90;;;;;;5053525;28;20037;-52
2024/01/02 10:11:09;;;;;;;1.90;1.07;;;11.10;99.90;;;;;;5053365;28;20123;-51
2024/01/02 10:13:51;;;;;;;1.50;1.00;;;11.10;99.90;;;;;;5053631;28;20414;-53
2024/01/02 10:16:38;;;;;;;1.57;1.03;;;11.10;99.90;;;;;;5053389;28;20477;-52
2024/01/02 10:19:31;;;;;;;1.07;0.80;;;11.10;99.90;;;;;;5053206;28;20044;-54
2024/01/02 10:22:25;;;;;;;1.37;0.77;;;11.10;99.90;;;;;;5053417;28;20043;-50
2024/01/02 10:24:52;;;;;;;1.13;0.63;;;11.10;99.90;;;;;;5053310;28;20474;-55
2024/01/02 10:27:57;;;;;;;1.57;0.70;;;11.10;99.90;;;;;;5053215;28;20039;-54
2024/01/02 10:30:26;;;;;;;0.80;0.70;;;11.10;99.90;;;;;;5052255;28;20041;-53
2024/01/02 10:32:54;;;;;;;0.70;0.50;;;11.20;99.90;;;;;;5052916;28;20040;-51
2024/01/02 10:35:43;;;;;;;0.67;0.60;;;11.10;99.90;;;;;;5053083;28;20028;-52
2024/01/02 10:38:24;;;;;;;0.35;0.35;;;11.10;99.90;;;;;;5053136;28;20470;-56
2024/01/02 10:40:56;;;;;;;0.87;0.50;;;11.20;99.90;;;;;;5052783;28;20060;-57
2024/01/02 10:43:30;;;;;;;0.50;0.40;;;11.20;99.90;;;;;;5052696;28;20078;-53
2024/01/02 10:46:09;;;;;;;0.90;0.60;;;11.40;99.90;;;;;;5052918;28;20037;-58
2024/01/02 10:48:39;;;;;;;;;;;11.40;99.90;;;;;;5052722;28;20032;-54
2024/01/02 10:51:05;;;;;;;;;;;11.30;99.90;;;;;;5053259;28;19924;-54
2024/01/02 10:53:49;;;;;;;0.50;0.30;;;11.40;99.90;;;;;;5052644;28;19909;-54
2024/01/02 10:56:40;;;;;;;0.67;0.40;;;11.40;99.90;;;;;;5052768;28;20041;-50
2024/01/02 10:59:24;;;;;;;0.70;0.43;;;11.40;99.90;;;;;;5052559;28;20319;-51
2024/01/02 11:01:55;;;;;;;0.70;0.43;;;11.40;99.90;;;;;;5052532;28;20021;-53
2024/01/02 11:04:53;;;;;;;0.97;0.20;;;11.40;99.90;;;;;;5052637;28;20021;-51
2024/01/02 11:07:25;;;;;;;0.83;0.40;;;11.50;99.90;;;;;;5052818;28;20039;-56
2024/01/02 11:10:13;;;;;;;0.40;0.20;;;11.40;99.90;;;;;;5052460;28;20045;-53
2024/01/02 11:12:52;;;;;;;0.37;0.33;;;11.40;99.90;;;;;;5052318;28;20047;-55
2024/01/02 11:15:19;;;;;;;0.17;0.15;;;11.50;99.90;;;;;;5052597;28;20025;-52
2024/01/02 11:17:48;;;;;;;0.17;0.10;;;11.50;99.90;;;;;;5052574;28;20049;-56
2024/01/02 11:20:20;;;;;;;0.52;0.40;;;11.60;99.90;;;;;;5052746;28;20036;-57
2024/01/02 11:23:08;;;;;;;0.30;0.20;;;11.60;99.90;;;;;;5052800;28;20033;-57
2024/01/02 11:25:43;;;;;;;0.20;0.10;;;11.60;99.90;;;;;;5053323;28;20044;-56
2024/01/02 11:28:11;;;;;;;0.50;0.30;;;11.60;99.90;;;;;;5052377;28;20940;-53
2024/01/02 11:30:38;;;;;;;0.60;0.23;;;11.60;99.90;;;;;;5051774;28;20033;-56
2024/01/02 11:33:17;;;;;;;0.80;0.40;;;11.60;99.90;;;;;;5052068;28;20382;-54
2024/01/02 11:35:49;;;;;;;;;;;11.50;99.90;;;;;;5052568;28;20029;-56
2024/01/02 11:38:23;;;;;;;0.30;0.17;;;11.50;99.90;;;;;;5052100;28;19995;-54
2024/01/02 11:41:11;;;;;;;0.13;0.13;;;11.50;99.90;;;;;;5052033;28;20104;-50
2024/01/02 11:43:59;;;;;;;0.30;0.30;;;11.40;99.90;;;;;;5051662;28;20033;-54
2024/01/02 11:46:25;;;;;;;0.90;0.40;;;11.40;99.90;;;;;;5035067;28;20494;-56
2024/01/02 11:48:51;;;;;;;0.20;0.10;;;11.30;99.90;;;;;;5051665;28;20057;-56
2024/01/02 11:51:23;;;;;;;1.13;0.10;;;11.30;99.90;;;;;;5051723;28;20069;-56
2024/01/02 11:54:07;;;;;;;0.17;0.17;;;11.20;99.90;;;;;;5051877;28;20083;-56
2024/01/02 11:56:33;;;;;;;0.53;0.10;;;11.10;99.90;;;;;;5051916;28;20508;-54
2024/01/02 11:59:22;;;;;;;0.27;0.13;;;11.00;99.90;;;;;;5051587;28;20025;-55
2024/01/02 12:01:59;;;;;;;1.17;0.30;;;11.00;99.90;;;;;;5050585;28;20033;-53
2024/01/02 12:04:41;;;;;;;0.13;0.10;;;10.90;99.90;;;;;;5051698;28;20029;-53
2024/01/02 12:07:31;;;;;;;0.10;0.10;;;10.80;99.90;;;;;;5034180;28;20375;-53
2024/01/02 12:09:57;;;;;;;0.27;0.20;;;10.70;99.90;;;;;;5033161;28;20512;-53
2024/01/02 12:12:35;;;;;;;0.20;0.13;;;10.60;99.90;;;;;;5051437;28;20033;-51
2024/01/02 12:15:10;;;;;;;2.13;0.20;;;10.50;99.90;;;;;;5051430;28;20060;-53
2024/01/02 12:17:57;;;;;;;0.30;0.10;;;10.50;99.90;;;;;;5051693;28;20444;-53
2024/01/02 12:20:24;;;;;;;0.93;0.30;;;10.50;99.90;;;;;;5051383;28;20083;-52
2024/01/02 12:22:50;;;;;;;0.23;0.20;;;10.40;99.90;;;;;;5051451;28;20120;-51
2024/01/02 12:25:16;;;;;;;1.97;0.30;;;10.30;99.90;;;;;;5051475;28;20107;-54
2024/01/02 12:27:49;;;;;;;0.23;0.20;;;10.30;99.90;;;;;;5051398;28;20026;-53
2024/01/02 12:30:37;;;;;;;0.43;0.23;;;10.30;99.90;;;;;;5051207;28;20040;-55
2024/01/02 12:33:12;;;;;;;2.00;0.50;;;10.30;99.90;;;;;;5051296;28;20053;-55
2024/01/02 12:35:53;;;;;;;0.30;0.20;;;10.20;99.90;;;;;;5051272;28;20493;-55
2024/01/02 12:38:21;;;;;;;0.10;0.10;;;10.20;99.90;;;;;;5033506;28;20098;-52
2024/01/02 12:40:48;;;;;;;0.88;0.40;;;10.20;99.90;;;;;;5051406;28;20389;-54
2024/01/02 12:43:22;;;;;;;0.80;0.37;;;10.20;99.90;;;;;;5051083;28;20060;-55
2024/01/02 12:45:58;;;;;;;1.63;0.40;;;10.20;99.90;;;;;;5051212;28;20036;-55
2024/01/02 12:48:25;;;;;;;2.33;0.47;;;10.20;99.90;;;;;;5051246;28;20020;-55
2024/01/02 12:50:53;;;;;;;0.40;0.30;;;10.20;99.90;;;;;;5050889;28;20091;-55
2024/01/02 12:53:20;;;;;;;0.33;0.10;;;10.10;99.90;;;;;;5051067;28;20029;-52
2024/01/02 12:55:57;;;;;;;1.30;0.30;;;10.10;99.90;;;;;;5051125;28;20056;-51
2024/01/02 12:58:29;;;;;;;0.20;0.20;;;10.10;99.90;;;;;;5051101;28;20033;-56
2024/01/02 13:00:55;;;;;;;0.60;0.50;;;10.10;99.90;;;;;;5050895;28;20037;-57